createdAt,value
2023-01-27T00:01:52.661Z,11.90
2023-01-27T00:06:58.195Z,8.20
2023-01-27T00:12:22.600Z,9.33
2023-01-27T00:17:30.873Z,8.80
2023-01-27T00:22:53.985Z,8.03
2023-01-27T00:27:59.437Z,6.00
2023-01-27T00:33:22.918Z,8.63
2023-01-27T00:38:29.843Z,9.57
2023-01-27T00:43:35.114Z,9.80
2023-01-27T00:48:40.467Z,8.77
2023-01-27T00:53:46.207Z,10.23
2023-01-27T00:58:51.823Z,12.57
2023-01-27T01:03:58.886Z,9.50
2023-01-27T01:09:05.267Z,10.20
2023-01-27T01:14:10.542Z,8.20
2023-01-27T01:19:16.283Z,8.67
2023-01-27T01:24:22.148Z,8.53
2023-01-27T01:29:27.526Z,8.10
2023-01-27T01:34:32.851Z,11.07
2023-01-27T01:39:38.126Z,9.07
2023-01-27T01:44:46.297Z,9.97
2023-01-27T01:49:52.639Z,11.17
2023-01-27T01:55:00.007Z,8.80
2023-01-27T02:00:07.888Z,9.83
2023-01-27T02:05:22.360Z,9.90
2023-01-27T02:10:27.753Z,9.73
2023-01-27T02:15:33.684Z,9.47
2023-01-27T02:20:47.310Z,10.40
2023-01-27T02:26:06.463Z,9.30
2023-01-27T02:31:13.166Z,9.07
2023-01-27T02:36:20.594Z,8.63
2023-01-27T02:41:39.252Z,8.90
2023-01-27T02:46:45.099Z,9.80
2023-01-27T02:51:51.572Z,8.93
2023-01-27T02:56:56.813Z,7.97
2023-01-27T03:02:02.549Z,8.47
2023-01-27T03:07:08.020Z,8.47
2023-01-27T03:12:22.606Z,10.17
2023-01-27T03:17:46.526Z,8.07
2023-01-27T03:22:52.108Z,6.87
2023-01-27T03:28:00.674Z,8.67
2023-01-27T03:33:07.567Z,9.67
2023-01-27T03:38:32.258Z,9.60
2023-01-27T03:43:55.690Z,8.00
2023-01-27T03:49:01.249Z,7.20
2023-01-27T03:54:06.664Z,10.13
2023-01-27T03:59:12.213Z,8.70
2023-01-27T04:04:36.060Z,8.77
2023-01-27T04:09:41.789Z,8.83
2023-01-27T04:14:49.602Z,10.03
2023-01-27T04:19:54.937Z,9.93
2023-01-27T04:25:00.268Z,8.17
2023-01-27T04:30:07.258Z,9.73
2023-01-27T04:35:13.799Z,7.40
2023-01-27T04:40:19.738Z,11.20
2023-01-27T04:45:25.139Z,7.77
2023-01-27T04:50:31.752Z,6.37
2023-01-27T04:55:38.259Z,6.50
2023-01-27T05:00:43.779Z,7.23
2023-01-27T05:05:49.285Z,8.47
2023-01-27T05:10:57.015Z,7.33
2023-01-27T05:16:17.398Z,5.87
2023-01-27T05:21:27.983Z,6.17
2023-01-27T05:26:33.383Z,5.80
2023-01-27T05:31:39.354Z,5.13
2023-01-27T05:36:44.954Z,5.13
2023-01-27T05:41:50.470Z,7.27
2023-01-27T05:46:55.954Z,6.20
2023-01-27T05:52:01.345Z,7.63
2023-01-27T05:57:06.885Z,8.47
2023-01-27T06:02:15.194Z,8.67
2023-01-27T06:07:23.094Z,6.20
2023-01-27T06:12:29.141Z,6.63
2023-01-27T06:17:34.655Z,7.30
2023-01-27T06:22:40.025Z,7.10
2023-01-27T06:27:46.733Z,9.07
2023-01-27T06:32:52.559Z,7.87
2023-01-27T06:38:00.331Z,5.10
2023-01-27T06:43:05.939Z,8.07
2023-01-27T06:48:11.519Z,4.47
2023-01-27T06:53:17.127Z,6.37
2023-01-27T06:58:22.635Z,5.07
2023-01-27T07:03:28.184Z,4.50
2023-01-27T07:08:34.220Z,5.77
2023-01-27T07:13:39.663Z,5.60
2023-01-27T07:18:44.789Z,6.53
2023-01-27T07:23:50.202Z,8.00
2023-01-27T07:28:57.078Z,7.90
2023-01-27T07:34:02.536Z,6.87
2023-01-27T07:39:07.773Z,6.47
2023-01-27T07:44:13.081Z,5.27
2023-01-27T07:49:21.504Z,5.73
2023-01-27T07:54:28.456Z,5.57
2023-01-27T07:59:39.521Z,5.80
2023-01-27T08:04:52.896Z,6.73
2023-01-27T08:09:54.552Z,7.27
2023-01-27T08:15:04.308Z,9.27
2023-01-27T08:20:15.221Z,7.17
2023-01-27T08:25:22.578Z,9.33
2023-01-27T08:30:31.338Z,7.23
2023-01-27T08:35:39.308Z,9.67
2023-01-27T08:40:47.583Z,9.63
2023-01-27T08:45:54.976Z,9.27
2023-01-27T08:51:03.841Z,7.77
2023-01-27T08:56:15.868Z,7.17
2023-01-27T09:01:23.615Z,8.37
2023-01-27T09:06:35.878Z,7.80
2023-01-27T09:11:44.316Z,6.90
2023-01-27T09:16:49.571Z,7.43
2023-01-27T09:21:54.956Z,7.97
2023-01-27T09:27:01.249Z,7.20
2023-01-27T09:32:09.523Z,7.27
2023-01-27T09:37:15.888Z,6.73
2023-01-27T09:42:49.916Z,7.47
2023-01-27T09:48:22.470Z,6.80
2023-01-27T09:53:50.461Z,8.33
2023-01-27T10:17:48.778Z,11.53
2023-01-27T10:28:46.734Z,8.97
2023-01-27T10:33:56.710Z,9.57
2023-01-27T10:39:14.864Z,9.73
2023-01-27T10:44:55.204Z,8.83
2023-01-27T10:50:03.863Z,8.53
2023-01-27T10:55:27.483Z,7.77
2023-01-27T11:01:19.773Z,6.03
2023-01-27T11:05:53.291Z,7.53
2023-01-27T11:11:22.342Z,9.17
2023-01-27T11:16:33.947Z,9.33
2023-01-27T11:21:55.400Z,8.70
2023-01-27T11:27:20.879Z,5.53
2023-01-27T11:32:35.407Z,5.57
2023-01-27T11:37:49.953Z,7.20
2023-01-27T11:43:00.379Z,7.83
2023-01-27T11:48:11.548Z,6.13
2023-01-27T11:53:36.527Z,6.80
2023-01-27T12:04:37.805Z,7.73
2023-01-27T12:09:45.025Z,4.90
2023-01-27T12:14:54.749Z,6.13
2023-01-27T12:20:06.853Z,6.23
2023-01-27T12:25:41.161Z,7.53
2023-01-27T12:31:14.044Z,5.87
2023-01-27T12:36:25.152Z,7.80
2023-01-27T12:41:33.548Z,9.43
2023-01-27T12:47:03.679Z,7.03
2023-01-27T12:52:23.779Z,6.13
2023-01-27T12:57:38.521Z,6.13
2023-01-27T13:02:52.523Z,8.53
2023-01-27T13:09:03.769Z,7.30
2023-01-27T13:13:31.737Z,7.47
2023-01-27T13:18:49.814Z,7.13
2023-01-27T13:52:12.571Z,5.57
2023-01-27T13:58:07.417Z,4.80
2023-01-27T14:03:28.008Z,4.10
2023-01-27T14:14:58.401Z,3.97
2023-01-27T14:20:25.409Z,5.27
2023-01-27T14:25:58.351Z,18.53
2023-01-27T14:31:36.855Z,4.00
2023-01-27T14:43:09.716Z,3.40
2023-01-27T14:48:41.119Z,5.97
2023-01-27T14:54:14.337Z,12.93
2023-01-27T15:00:04.950Z,7.27
2023-01-27T15:05:44.370Z,2.57
2023-01-27T15:11:17.747Z,2.60
2023-01-27T15:16:43.378Z,2.43
2023-01-27T15:21:53.021Z,2.30
2023-01-27T15:26:59.195Z,1.87
2023-01-27T15:32:22.699Z,2.27
2023-01-27T15:37:28.979Z,1.57
2023-01-27T15:42:54.356Z,1.30
2023-01-27T15:48:06.809Z,2.73
2023-01-27T15:53:22.670Z,3.00
2023-01-27T15:58:41.564Z,2.10
2023-01-27T16:10:05.868Z,1.57
2023-01-27T16:15:26.109Z,3.42
2023-01-27T16:20:46.591Z,4.67
2023-01-27T16:25:55.274Z,1.60
2023-01-27T16:31:03.617Z,3.17
2023-01-27T16:36:26.717Z,1.97
2023-01-27T16:41:36.247Z,2.03
2023-01-27T16:46:45.951Z,2.33
2023-01-27T16:52:02.935Z,1.47
2023-01-27T16:57:09.353Z,1.97
2023-01-27T17:02:17.586Z,1.93
2023-01-27T17:07:22.996Z,2.10
2023-01-27T17:12:46.202Z,2.23
2023-01-27T17:17:52.158Z,0.77
2023-01-27T17:22:57.583Z,2.20
2023-01-27T17:28:05.646Z,2.50
2023-01-27T17:33:16.827Z,2.07
2023-01-27T17:38:27.393Z,2.30
2023-01-27T17:43:41.605Z,1.37
2023-01-27T17:48:56.556Z,2.33
2023-01-27T17:54:02.951Z,1.70
2023-01-27T17:59:11.292Z,0.90
2023-01-27T18:04:17.485Z,1.73
2023-01-27T18:09:28.255Z,1.80
2023-01-27T18:14:35.951Z,1.43
2023-01-27T18:19:44.174Z,1.30
2023-01-27T18:24:52.384Z,1.53
2023-01-27T18:30:00.996Z,1.63
2023-01-27T18:35:27.481Z,1.80
2023-01-27T18:40:35.246Z,1.97
2023-01-27T18:45:41.866Z,1.20
2023-01-27T18:50:48.685Z,1.70
2023-01-27T18:55:54.304Z,1.67
2023-01-27T19:00:59.991Z,2.47
2023-01-27T19:06:06.849Z,2.87
2023-01-27T19:11:16.382Z,1.43
2023-01-27T19:16:21.743Z,1.47
2023-01-27T19:21:27.154Z,2.23
2023-01-27T19:26:32.710Z,1.20
2023-01-27T19:31:38.074Z,1.33
2023-01-27T19:36:46.102Z,1.90
2023-01-27T19:41:51.404Z,0.90
2023-01-27T19:46:56.615Z,1.80
2023-01-27T19:52:03.401Z,1.77
2023-01-27T19:57:11.984Z,1.43
2023-01-27T20:02:17.428Z,2.00
2023-01-27T20:07:24.026Z,1.50
2023-01-27T20:12:29.259Z,1.87
2023-01-27T20:17:34.522Z,1.10
2023-01-27T20:22:39.919Z,1.50
2023-01-27T20:27:47.600Z,2.17
2023-01-27T20:32:55.129Z,2.97
2023-01-27T20:38:02.057Z,1.43
2023-01-27T20:43:19.075Z,2.07
2023-01-27T20:48:22.338Z,1.47
2023-01-27T20:53:29.325Z,1.30
2023-01-27T20:58:36.491Z,1.73
2023-01-27T21:03:42.167Z,1.13
2023-01-27T21:08:50.428Z,1.33
2023-01-27T21:13:55.615Z,1.57
2023-01-27T21:19:02.057Z,1.73
2023-01-27T21:24:08.416Z,1.27
2023-01-27T21:29:13.774Z,1.37
2023-01-27T21:34:19.108Z,1.97
2023-01-27T21:39:24.937Z,1.83
2023-01-27T21:44:48.406Z,1.17
2023-01-27T21:50:04.036Z,1.47
2023-01-27T21:55:12.948Z,2.23
2023-01-27T22:00:26.168Z,1.17
2023-01-27T22:05:33.311Z,1.83
2023-01-27T22:10:38.974Z,1.37
2023-01-27T22:15:45.645Z,2.97
2023-01-27T22:20:50.905Z,2.13
2023-01-27T22:25:56.297Z,1.40
2023-01-27T22:31:04.694Z,2.30
2023-01-27T22:36:10.311Z,1.13
2023-01-27T22:41:15.691Z,1.60
2023-01-27T22:46:21.003Z,1.00
2023-01-27T22:51:26.235Z,1.60
2023-01-27T22:56:31.456Z,2.13
2023-01-27T23:01:37.296Z,1.00
2023-01-27T23:06:42.633Z,1.23
2023-01-27T23:11:47.939Z,1.13
2023-01-27T23:16:53.179Z,1.33
2023-01-27T23:21:58.460Z,1.70
2023-01-27T23:27:03.781Z,0.80
2023-01-27T23:32:09.089Z,2.17
2023-01-27T23:37:14.250Z,1.93
2023-01-27T23:42:20.006Z,1.90
2023-01-27T23:47:25.266Z,1.00
2023-01-27T23:52:31.744Z,1.33
2023-01-27T23:57:37.043Z,1.40
